sensor_id;sensor_type;location;lat;lon;timestamp;temperature;humidity
24686;DHT22;12804;51.176;4.452;2022-09-16T00:02:01;15.00;99.90
24686;DHT22;12804;51.176;4.452;2022-09-16T00:04:27;15.00;99.90
24686;DHT22;12804;51.176;4.452;2022-09-16T00:06:53;15.10;99.90
24686;DHT22;12804;51.176;4.452;2022-09-16T00:09:18;15.10;99.90
24686;DHT22;12804;51.176;4.452;2022-09-16T00:11:44;15.20;99.90
24686;DHT22;12804;51.176;4.452;2022-09-16T00:14:10;15.10;99.90
24686;DHT22;12804;51.176;4.452;2022-09-16T00:16:36;15.10;99.90
24686;DHT22;12804;51.176;4.452;2022-09-16T00:19:01;15.00;99.90
24686;DHT22;12804;51.176;4.452;2022-09-16T00:21:28;14.90;99.90
24686;DHT22;12804;51.176;4.452;2022-09-16T00:23:54;14.90;99.90
24686;DHT22;12804;51.176;4.452;2022-09-16T00:26:20;14.90;99.90
24686;DHT22;12804;51.176;4.452;2022-09-16T00:28:49;14.70;99.90
24686;DHT22;12804;51.176;4.452;2022-09-16T00:31:15;14.60;99.90
24686;DHT22;12804;51.176;4.452;2022-09-16T00:33:41;14.50;99.90
24686;DHT22;12804;51.176;4.452;2022-09-16T00:36:08;14.60;99.90
24686;DHT22;12804;51.176;4.452;2022-09-16T00:38:34;14.50;99.90
24686;DHT22;12804;51.176;4.452;2022-09-16T00:40:59;14.60;99.90
24686;DHT22;12804;51.176;4.452;2022-09-16T00:43:25;14.50;99.90
24686;DHT22;12804;51.176;4.452;2022-09-16T00:45:58;14.40;99.90
24686;DHT22;12804;51.176;4.452;2022-09-16T00:48:26;14.30;99.90
24686;DHT22;12804;51.176;4.452;2022-09-16T00:50:55;14.10;99.90
24686;DHT22;12804;51.176;4.452;2022-09-16T00:53:27;14.20;99.90
24686;DHT22;12804;51.176;4.452;2022-09-16T00:55:54;14.20;99.90
24686;DHT22;12804;51.176;4.452;2022-09-16T00:58:24;14.10;99.90
24686;DHT22;12804;51.176;4.452;2022-09-16T01:00:51;14.20;99.90
24686;DHT22;12804;51.176;4.452;2022-09-16T01:03:17;14.20;99.90
24686;DHT22;12804;51.176;4.452;2022-09-16T01:05:43;14.30;99.90
24686;DHT22;12804;51.176;4.452;2022-09-16T01:08:09;14.30;99.90
24686;DHT22;12804;51.176;4.452;2022-09-16T01:10:35;14.10;99.90
24686;DHT22;12804;51.176;4.452;2022-09-16T01:13:02;14.00;99.90
24686;DHT22;12804;51.176;4.452;2022-09-16T01:23:48;13.90;99.90
24686;DHT22;12804;51.176;4.452;2022-09-16T01:36:40;13.80;99.90
24686;DHT22;12804;51.176;4.452;2022-09-16T01:42:08;13.70;99.90
24686;DHT22;12804;51.176;4.452;2022-09-16T01:44:42;13.80;99.90
24686;DHT22;12804;51.176;4.452;2022-09-16T01:47:14;13.80;99.90
24686;DHT22;12804;51.176;4.452;2022-09-16T01:54:53;13.90;99.90
24686;DHT22;12804;51.176;4.452;2022-09-16T01:57:22;14.00;99.90
24686;DHT22;12804;51.176;4.452;2022-09-16T01:59:53;14.00;99.90
24686;DHT22;12804;51.176;4.452;2022-09-16T02:02:27;14.10;99.90
24686;DHT22;12804;51.176;4.452;2022-09-16T02:04:56;14.10;99.90
24686;DHT22;12804;51.176;4.452;2022-09-16T02:07:24;14.10;99.90
24686;DHT22;12804;51.176;4.452;2022-09-16T02:09:53;13.90;99.90
24686;DHT22;12804;51.176;4.452;2022-09-16T02:12:21;13.90;99.90
24686;DHT22;12804;51.176;4.452;2022-09-16T02:14:47;13.80;99.90
24686;DHT22;12804;51.176;4.452;2022-09-16T02:17:16;13.80;99.90
24686;DHT22;12804;51.176;4.452;2022-09-16T02:19:51;13.80;99.90
24686;DHT22;12804;51.176;4.452;2022-09-16T02:22:22;13.70;99.90
24686;DHT22;12804;51.176;4.452;2022-09-16T02:24:50;13.60;99.90
24686;DHT22;12804;51.176;4.452;2022-09-16T02:27:17;13.70;99.90
24686;DHT22;12804;51.176;4.452;2022-09-16T02:29:53;13.70;99.90
24686;DHT22;12804;51.176;4.452;2022-09-16T02:32:21;13.80;99.90
24686;DHT22;12804;51.176;4.452;2022-09-16T02:34:49;13.90;99.90
24686;DHT22;12804;51.176;4.452;2022-09-16T02:37:26;14.00;99.90
24686;DHT22;12804;51.176;4.452;2022-09-16T02:39:54;14.20;99.90
24686;DHT22;12804;51.176;4.452;2022-09-16T02:42:22;14.30;99.90
24686;DHT22;12804;51.176;4.452;2022-09-16T02:44:48;14.30;99.90
24686;DHT22;12804;51.176;4.452;2022-09-16T02:49:59;13.80;99.90
24686;DHT22;12804;51.176;4.452;2022-09-16T02:57:30;13.40;99.90
24686;DHT22;12804;51.176;4.452;2022-09-16T02:59:55;13.40;99.90
24686;DHT22;12804;51.176;4.452;2022-09-16T03:02:21;13.30;99.90
24686;DHT22;12804;51.176;4.452;2022-09-16T03:04:47;13.20;99.90
24686;DHT22;12804;51.176;4.452;2022-09-16T03:07:13;13.10;99.90
24686;DHT22;12804;51.176;4.452;2022-09-16T03:09:41;13.00;99.90
24686;DHT22;12804;51.176;4.452;2022-09-16T03:25:03;13.30;99.90
24686;DHT22;12804;51.176;4.452;2022-09-16T03:30:18;13.30;99.90
24686;DHT22;12804;51.176;4.452;2022-09-16T03:32:47;13.50;99.90
24686;DHT22;12804;51.176;4.452;2022-09-16T03:35:16;13.30;99.90
24686;DHT22;12804;51.176;4.452;2022-09-16T03:37:43;13.30;99.90
24686;DHT22;12804;51.176;4.452;2022-09-16T03:40:11;13.30;99.90
24686;DHT22;12804;51.176;4.452;2022-09-16T03:42:38;13.20;99.90
24686;DHT22;12804;51.176;4.452;2022-09-16T03:45:05;13.30;99.90
24686;DHT22;12804;51.176;4.452;2022-09-16T03:47:31;13.30;99.90
24686;DHT22;12804;51.176;4.452;2022-09-16T03:49:57;13.40;99.90
24686;DHT22;12804;51.176;4.452;2022-09-16T03:52:22;13.50;99.90
24686;DHT22;12804;51.176;4.452;2022-09-16T03:54:48;13.60;99.90
24686;DHT22;12804;51.176;4.452;2022-09-16T03:57:14;13.70;99.90
24686;DHT22;12804;51.176;4.452;2022-09-16T03:59:40;13.80;99.90
24686;DHT22;12804;51.176;4.452;2022-09-16T04:02:06;13.80;99.90
24686;DHT22;12804;51.176;4.452;2022-09-16T04:04:32;13.80;99.90
24686;DHT22;12804;51.176;4.452;2022-09-16T04:06:57;13.90;99.90
24686;DHT22;12804;51.176;4.452;2022-09-16T04:09:23;13.80;99.90
24686;DHT22;12804;51.176;4.452;2022-09-16T04:11:49;13.70;99.90
24686;DHT22;12804;51.176;4.452;2022-09-16T04:14:14;13.70;99.90
24686;DHT22;12804;51.176;4.452;2022-09-16T04:16:40;13.60;99.90
24686;DHT22;12804;51.176;4.452;2022-09-16T04:19:06;13.50;99.90
24686;DHT22;12804;51.176;4.452;2022-09-16T04:21:32;13.50;99.90
24686;DHT22;12804;51.176;4.452;2022-09-16T04:23:58;13.30;99.90
24686;DHT22;12804;51.176;4.452;2022-09-16T04:26:23;13.30;99.90
24686;DHT22;12804;51.176;4.452;2022-09-16T04:28:52;13.30;99.90
24686;DHT22;12804;51.176;4.452;2022-09-16T04:31:21;13.40;99.90
24686;DHT22;12804;51.176;4.452;2022-09-16T04:33:46;13.30;99.90
24686;DHT22;12804;51.176;4.452;2022-09-16T04:36:14;13.30;99.90
24686;DHT22;12804;51.176;4.452;2022-09-16T04:38:41;13.40;99.90
24686;DHT22;12804;51.176;4.452;2022-09-16T04:41:11;13.30;99.90
24686;DHT22;12804;51.176;4.452;2022-09-16T04:43:37;13.20;99.90
24686;DHT22;12804;51.176;4.452;2022-09-16T04:46:02;13.30;99.90
24686;DHT22;12804;51.176;4.452;2022-09-16T04:48:28;13.10;99.90
24686;DHT22;12804;51.176;4.452;2022-09-16T04:51:00;13.20;99.90
24686;DHT22;12804;51.176;4.452;2022-09-16T04:53:25;13.10;99.90
24686;DHT22;12804;51.176;4.452;2022-09-16T04:55:52;13.10;99.90
24686;DHT22;12804;51.176;4.452;2022-09-16T04:58:17;13.10;99.90
24686;DHT22;12804;51.176;4.452;2022-09-16T05:00:43;13.00;99.90
24686;DHT22;12804;51.176;4.452;2022-09-16T05:03:09;13.10;99.90
24686;DHT22;12804;51.176;4.452;2022-09-16T05:05:35;13.10;99.90
24686;DHT22;12804;51.176;4.452;2022-09-16T05:08:00;13.10;99.90
24686;DHT22;12804;51.176;4.452;2022-09-16T05:10:26;13.00;99.90
24686;DHT22;12804;51.176;4.452;2022-09-16T05:12:53;13.10;99.90
24686;DHT22;12804;51.176;4.452;2022-09-16T05:15:19;13.10;99.90
24686;DHT22;12804;51.176;4.452;2022-09-16T05:17:45;13.20;99.90
24686;DHT22;12804;51.176;4.452;2022-09-16T05:20:11;13.20;99.90
24686;DHT22;12804;51.176;4.452;2022-09-16T05:22:37;13.20;99.90
24686;DHT22;12804;51.176;4.452;2022-09-16T05:25:03;13.20;99.90
24686;DHT22;12804;51.176;4.452;2022-09-16T05:27:29;13.20;99.90
24686;DHT22;12804;51.176;4.452;2022-09-16T05:29:55;13.20;99.90
24686;DHT22;12804;51.176;4.452;2022-09-16T05:32:21;13.10;99.90
24686;DHT22;12804;51.176;4.452;2022-09-16T05:34:47;13.20;99.90
24686;DHT22;12804;51.176;4.452;2022-09-16T05:37:15;13.30;99.90
24686;DHT22;12804;51.176;4.452;2022-09-16T05:39:41;13.20;99.90
24686;DHT22;12804;51.176;4.452;2022-09-16T05:42:07;13.10;99.90
24686;DHT22;12804;51.176;4.452;2022-09-16T05:44:33;13.10;99.90
24686;DHT22;12804;51.176;4.452;2022-09-16T05:47:00;13.10;99.90
24686;DHT22;12804;51.176;4.452;2022-09-16T05:49:25;13.30;99.90
24686;DHT22;12804;51.176;4.452;2022-09-16T05:51:51;13.40;99.90
24686;DHT22;12804;51.176;4.452;2022-09-16T05:54:18;13.40;99.90
24686;DHT22;12804;51.176;4.452;2022-09-16T05:56:44;13.30;99.90
24686;DHT22;12804;51.176;4.452;2022-09-16T05:59:10;13.20;99.90
24686;DHT22;12804;51.176;4.452;2022-09-16T06:01:36;13.20;99.90
24686;DHT22;12804;51.176;4.452;2022-09-16T06:04:03;13.10;99.90
24686;DHT22;12804;51.176;4.452;2022-09-16T06:06:34;12.80;99.90
24686;DHT22;12804;51.176;4.452;2022-09-16T06:09:02;12.70;99.90
24686;DHT22;12804;51.176;4.452;2022-09-16T06:11:29;12.70;99.90
24686;DHT22;12804;51.176;4.452;2022-09-16T06:13:56;12.60;99.90
24686;DHT22;12804;51.176;4.452;2022-09-16T06:16:22;12.60;99.90
24686;DHT22;12804;51.176;4.452;2022-09-16T06:18:50;12.60;99.90
24686;DHT22;12804;51.176;4.452;2022-09-16T06:21:15;12.60;99.90
24686;DHT22;12804;51.176;4.452;2022-09-16T06:23:41;12.50;99.90
24686;DHT22;12804;51.176;4.452;2022-09-16T06:26:12;12.50;99.90
24686;DHT22;12804;51.176;4.452;2022-09-16T06:28:38;12.60;99.90
24686;DHT22;12804;51.176;4.452;2022-09-16T06:31:09;12.60;99.90
24686;DHT22;12804;51.176;4.452;2022-09-16T06:33:35;12.60;99.90
24686;DHT22;12804;51.176;4.452;2022-09-16T06:36:02;12.60;99.90
24686;DHT22;12804;51.176;4.452;2022-09-16T06:38:27;13.30;99.90
24686;DHT22;12804;51.176;4.452;2022-09-16T06:40:56;13.20;99.90
24686;DHT22;12804;51.176;4.452;2022-09-16T06:43:22;13.00;99.90
24686;DHT22;12804;51.176;4.452;2022-09-16T06:45:47;12.90;99.90
24686;DHT22;12804;51.176;4.452;2022-09-16T06:48:13;12.80;99.90
24686;DHT22;12804;51.176;4.452;2022-09-16T06:50:39;12.80;99.90
24686;DHT22;12804;51.176;4.452;2022-09-16T06:53:04;12.80;99.90
24686;DHT22;12804;51.176;4.452;2022-09-16T06:55:30;12.80;99.90
24686;DHT22;12804;51.176;4.452;2022-09-16T06:57:56;12.90;99.90
24686;DHT22;12804;51.176;4.452;2022-09-16T07:00:22;13.00;99.90
24686;DHT22;12804;51.176;4.452;2022-09-16T07:02:47;13.00;99.90
24686;DHT22;12804;51.176;4.452;2022-09-16T07:05:13;13.20;99.90
24686;DHT22;12804;51.176;4.452;2022-09-16T07:07:39;13.20;99.90
24686;DHT22;12804;51.176;4.452;2022-09-16T07:10:05;13.30;99.90
24686;DHT22;12804;51.176;4.452;2022-09-16T07:12:31;13.30;99.90
24686;DHT22;12804;51.176;4.452;2022-09-16T07:14:57;13.40;99.90
24686;DHT22;12804;51.176;4.452;2022-09-16T07:17:22;13.40;99.90
24686;DHT22;12804;51.176;4.452;2022-09-16T07:19:51;13.50;99.90
24686;DHT22;12804;51.176;4.452;2022-09-16T07:22:17;13.50;99.90
24686;DHT22;12804;51.176;4.452;2022-09-16T07:24:43;13.40;99.90
24686;DHT22;12804;51.176;4.452;2022-09-16T07:27:10;13.30;99.90
24686;DHT22;12804;51.176;4.452;2022-09-16T07:29:36;13.30;99.90
24686;DHT22;12804;51.176;4.452;2022-09-16T07:32:01;13.30;99.90
24686;DHT22;12804;51.176;4.452;2022-09-16T07:34:27;13.40;99.90
24686;DHT22;12804;51.176;4.452;2022-09-16T07:36:53;13.40;99.90
24686;DHT22;12804;51.176;4.452;2022-09-16T07:39:18;13.50;99.90
24686;DHT22;12804;51.176;4.452;2022-09-16T07:41:46;13.40;99.90
24686;DHT22;12804;51.176;4.452;2022-09-16T07:44:13;13.50;99.90
24686;DHT22;12804;51.176;4.452;2022-09-16T07:46:39;13.50;99.90
24686;DHT22;12804;51.176;4.452;2022-09-16T07:49:06;13.30;99.90
24686;DHT22;12804;51.176;4.452;2022-09-16T07:51:31;13.30;99.90
24686;DHT22;12804;51.176;4.452;2022-09-16T07:54:01;13.30;99.90
24686;DHT22;12804;51.176;4.452;2022-09-16T07:56:29;13.50;99.90
24686;DHT22;12804;51.176;4.452;2022-09-16T07:58:55;13.40;99.90
24686;DHT22;12804;51.176;4.452;2022-09-16T08:01:21;13.40;99.90
24686;DHT22;12804;51.176;4.452;2022-09-16T08:03:48;13.40;99.90
24686;DHT22;12804;51.176;4.452;2022-09-16T08:06:15;13.60;99.90
24686;DHT22;12804;51.176;4.452;2022-09-16T08:08:41;13.70;99.90
24686;DHT22;12804;51.176;4.452;2022-09-16T08:11:06;13.80;99.90
24686;DHT22;12804;51.176;4.452;2022-09-16T08:13:33;13.80;99.90
24686;DHT22;12804;51.176;4.452;2022-09-16T08:16:21;13.70;99.90
24686;DHT22;12804;51.176;4.452;2022-09-16T08:18:48;13.80;99.90
24686;DHT22;12804;51.176;4.452;2022-09-16T08:21:16;13.70;99.90
24686;DHT22;12804;51.176;4.452;2022-09-16T08:23:42;13.60;99.90
24686;DHT22;12804;51.176;4.452;2022-09-16T08:26:08;13.40;99.90
24686;DHT22;12804;51.176;4.452;2022-09-16T08:28:35;13.40;99.90
24686;DHT22;12804;51.176;4.452;2022-09-16T08:31:02;13.30;99.90
24686;DHT22;12804;51.176;4.452;2022-09-16T08:33:28;13.50;99.90
24686;DHT22;12804;51.176;4.452;2022-09-16T08:35:58;13.60;99.90
24686;DHT22;12804;51.176;4.452;2022-09-16T08:38:24;13.80;99.90
24686;DHT22;12804;51.176;4.452;2022-09-16T08:40:50;14.10;99.90
24686;DHT22;12804;51.176;4.452;2022-09-16T08:43:20;14.10;99.90
24686;DHT22;12804;51.176;4.452;2022-09-16T08:51:32;13.90;99.90
24686;DHT22;12804;51.176;4.452;2022-09-16T08:54:02;13.90;99.90
24686;DHT22;12804;51.176;4.452;2022-09-16T08:56:28;13.90;99.90
24686;DHT22;12804;51.176;4.452;2022-09-16T08:58:57;14.00;99.90
24686;DHT22;12804;51.176;4.452;2022-09-16T09:01:33;14.20;99.90
24686;DHT22;12804;51.176;4.452;2022-09-16T09:03:59;14.30;99.90
24686;DHT22;12804;51.176;4.452;2022-09-16T09:06:31;14.50;99.90
24686;DHT22;12804;51.176;4.452;2022-09-16T09:09:50;14.60;99.90
24686;DHT22;12804;51.176;4.452;2022-09-16T09:12:09;14.70;99.90
24686;DHT22;12804;51.176;4.452;2022-09-16T09:17:32;14.60;99.90
24686;DHT22;12804;51.176;4.452;2022-09-16T09:25:19;14.60;99.90
24686;DHT22;12804;51.176;4.452;2022-09-16T09:27:53;14.80;99.90
24686;DHT22;12804;51.176;4.452;2022-09-16T09:30:21;15.10;99.90
24686;DHT22;12804;51.176;4.452;2022-09-16T09:35:26;15.50;99.90
24686;DHT22;12804;51.176;4.452;2022-09-16T09:40:20;15.70;99.90
24686;DHT22;12804;51.176;4.452;2022-09-16T09:43:31;16.00;99.90
24686;DHT22;12804;51.176;4.452;2022-09-16T09:45:49;16.20;99.90
24686;DHT22;12804;51.176;4.452;2022-09-16T09:48:23;16.30;99.90
24686;DHT22;12804;51.176;4.452;2022-09-16T09:50:51;15.70;99.90
24686;DHT22;12804;51.176;4.452;2022-09-16T09:53:19;14.80;99.90
24686;DHT22;12804;51.176;4.452;2022-09-16T09:55:47;14.30;99.90
24686;DHT22;12804;51.176;4.452;2022-09-16T09:58:32;13.90;99.90
24686;DHT22;12804;51.176;4.452;2022-09-16T10:01:01;13.60;99.90
24686;DHT22;12804;51.176;4.452;2022-09-16T10:03:28;13.60;99.90
24686;DHT22;12804;51.176;4.452;2022-09-16T10:05:53;13.60;99.90
24686;DHT22;12804;51.176;4.452;2022-09-16T10:10:47;13.90;99.90
24686;DHT22;12804;51.176;4.452;2022-09-16T10:13:13;13.90;99.90
24686;DHT22;12804;51.176;4.452;2022-09-16T10:15:39;14.00;99.90
24686;DHT22;12804;51.176;4.452;2022-09-16T10:18:12;14.30;99.90
24686;DHT22;12804;51.176;4.452;2022-09-16T10:20:40;14.80;99.90
24686;DHT22;12804;51.176;4.452;2022-09-16T10:23:13;15.00;99.90
24686;DHT22;12804;51.176;4.452;2022-09-16T10:25:40;15.00;99.90
24686;DHT22;12804;51.176;4.452;2022-09-16T10:28:23;14.60;99.90
24686;DHT22;12804;51.176;4.452;2022-09-16T10:30:53;14.40;99.90
24686;DHT22;12804;51.176;4.452;2022-09-16T10:33:35;14.00;99.90
24686;DHT22;12804;51.176;4.452;2022-09-16T10:36:06;13.80;99.90
24686;DHT22;12804;51.176;4.452;2022-09-16T10:38:37;13.70;99.90
24686;DHT22;12804;51.176;4.452;2022-09-16T10:41:07;13.60;99.90
24686;DHT22;12804;51.176;4.452;2022-09-16T10:43:34;13.70;99.90
24686;DHT22;12804;51.176;4.452;2022-09-16T10:46:01;14.00;99.90
24686;DHT22;12804;51.176;4.452;2022-09-16T10:48:27;14.20;99.90
24686;DHT22;12804;51.176;4.452;2022-09-16T10:51:04;14.50;99.90
24686;DHT22;12804;51.176;4.452;2022-09-16T10:53:37;14.70;99.90
24686;DHT22;12804;51.176;4.452;2022-09-16T10:56:04;15.50;99.90
24686;DHT22;12804;51.176;4.452;2022-09-16T10:58:30;16.50;99.90
24686;DHT22;12804;51.176;4.452;2022-09-16T11:03:37;16.90;99.90
24686;DHT22;12804;51.176;4.452;2022-09-16T11:19:16;14.10;99.90
24686;DHT22;12804;51.176;4.452;2022-09-16T11:21:48;14.30;99.90
24686;DHT22;12804;51.176;4.452;2022-09-16T11:27:02;15.20;99.90
24686;DHT22;12804;51.176;4.452;2022-09-16T11:32:31;15.60;99.90
24686;DHT22;12804;51.176;4.452;2022-09-16T11:37:42;16.50;99.90
24686;DHT22;12804;51.176;4.452;2022-09-16T11:40:14;17.80;99.90
24686;DHT22;12804;51.176;4.452;2022-09-16T11:42:49;18.80;99.90
24686;DHT22;12804;51.176;4.452;2022-09-16T11:48:07;19.40;99.90
24686;DHT22;12804;51.176;4.452;2022-09-16T11:58:36;16.60;99.90
24686;DHT22;12804;51.176;4.452;2022-09-16T12:01:00;16.10;99.90
24686;DHT22;12804;51.176;4.452;2022-09-16T12:03:31;15.60;99.90
24686;DHT22;12804;51.176;4.452;2022-09-16T12:06:03;15.40;99.90
24686;DHT22;12804;51.176;4.452;2022-09-16T12:08:33;15.20;99.90
24686;DHT22;12804;51.176;4.452;2022-09-16T12:11:21;15.20;99.90
24686;DHT22;12804;51.176;4.452;2022-09-16T12:13:56;15.40;99.90
24686;DHT22;12804;51.176;4.452;2022-09-16T12:16:33;15.60;99.90
24686;DHT22;12804;51.176;4.452;2022-09-16T12:19:10;15.80;99.90
24686;DHT22;12804;51.176;4.452;2022-09-16T12:21:39;15.70;99.90
24686;DHT22;12804;51.176;4.452;2022-09-16T12:32:03;15.80;99.90
24686;DHT22;12804;51.176;4.452;2022-09-16T12:37:21;16.10;99.90
24686;DHT22;12804;51.176;4.452;2022-09-16T12:39:48;16.30;99.90
24686;DHT22;12804;51.176;4.452;2022-09-16T12:42:39;16.10;99.90
24686;DHT22;12804;51.176;4.452;2022-09-16T12:45:14;16.10;99.90
24686;DHT22;12804;51.176;4.452;2022-09-16T12:55:48;20.70;99.90
24686;DHT22;12804;51.176;4.452;2022-09-16T12:59:02;20.60;99.90
24686;DHT22;12804;51.176;4.452;2022-09-16T13:03:35;19.40;99.90
24686;DHT22;12804;51.176;4.452;2022-09-16T13:06:04;18.90;99.90
24686;DHT22;12804;51.176;4.452;2022-09-16T13:08:30;18.90;99.90
24686;DHT22;12804;51.176;4.452;2022-09-16T13:11:00;19.30;99.90
24686;DHT22;12804;51.176;4.452;2022-09-16T13:13:49;18.60;99.90
24686;DHT22;12804;51.176;4.452;2022-09-16T13:16:13;18.40;99.90
24686;DHT22;12804;51.176;4.452;2022-09-16T13:18:48;18.20;99.90
24686;DHT22;12804;51.176;4.452;2022-09-16T13:23:46;17.00;99.90
24686;DHT22;12804;51.176;4.452;2022-09-16T13:26:13;16.70;99.90
24686;DHT22;12804;51.176;4.452;2022-09-16T13:28:40;17.60;99.90
24686;DHT22;12804;51.176;4.452;2022-09-16T13:31:17;19.50;99.90
24686;DHT22;12804;51.176;4.452;2022-09-16T13:38:45;21.30;99.90
24686;DHT22;12804;51.176;4.452;2022-09-16T13:41:12;22.10;99.90
24686;DHT22;12804;51.176;4.452;2022-09-16T13:46:10;23.70;99.90
24686;DHT22;12804;51.176;4.452;2022-09-16T13:48:41;25.10;99.90
24686;DHT22;12804;51.176;4.452;2022-09-16T13:51:11;24.30;99.90
24686;DHT22;12804;51.176;4.452;2022-09-16T13:53:42;23.20;99.90
24686;DHT22;12804;51.176;4.452;2022-09-16T13:58:43;21.70;99.90
24686;DHT22;12804;51.176;4.452;2022-09-16T14:01:18;21.40;99.90
24686;DHT22;12804;51.176;4.452;2022-09-16T14:08:56;19.80;99.90
24686;DHT22;12804;51.176;4.452;2022-09-16T14:14:05;18.10;99.90
24686;DHT22;12804;51.176;4.452;2022-09-16T14:16:33;17.20;99.90
24686;DHT22;12804;51.176;4.452;2022-09-16T14:19:03;16.70;99.90
24686;DHT22;12804;51.176;4.452;2022-09-16T14:21:30;16.40;99.90
24686;DHT22;12804;51.176;4.452;2022-09-16T14:26:37;15.80;99.90
24686;DHT22;12804;51.176;4.452;2022-09-16T14:29:03;15.20;99.90
24686;DHT22;12804;51.176;4.452;2022-09-16T14:31:29;14.90;99.90
24686;DHT22;12804;51.176;4.452;2022-09-16T14:33:56;14.60;99.90
24686;DHT22;12804;51.176;4.452;2022-09-16T14:41:31;14.50;99.90
24686;DHT22;12804;51.176;4.452;2022-09-16T14:44:06;14.80;99.90
24686;DHT22;12804;51.176;4.452;2022-09-16T14:46:38;15.40;99.90
24686;DHT22;12804;51.176;4.452;2022-09-16T14:49:03;16.20;99.90
24686;DHT22;12804;51.176;4.452;2022-09-16T14:51:29;17.20;99.90
24686;DHT22;12804;51.176;4.452;2022-09-16T14:53:56;18.10;99.90
24686;DHT22;12804;51.176;4.452;2022-09-16T14:56:22;19.60;99.90
24686;DHT22;12804;51.176;4.452;2022-09-16T14:58:48;21.70;99.90
24686;DHT22;12804;51.176;4.452;2022-09-16T15:01:17;23.00;99.90
24686;DHT22;12804;51.176;4.452;2022-09-16T15:03:50;22.30;99.90
24686;DHT22;12804;51.176;4.452;2022-09-16T15:06:18;21.10;99.90
24686;DHT22;12804;51.176;4.452;2022-09-16T15:08:46;20.00;99.90
24686;DHT22;12804;51.176;4.452;2022-09-16T15:11:17;19.30;99.90
24686;DHT22;12804;51.176;4.452;2022-09-16T15:13:44;18.80;99.90
24686;DHT22;12804;51.176;4.452;2022-09-16T15:16:11;18.70;99.90
24686;DHT22;12804;51.176;4.452;2022-09-16T15:18:41;19.00;99.90
24686;DHT22;12804;51.176;4.452;2022-09-16T15:21:11;19.10;99.90
24686;DHT22;12804;51.176;4.452;2022-09-16T15:23:43;19.00;99.90
24686;DHT22;12804;51.176;4.452;2022-09-16T15:28:35;17.90;99.90
24686;DHT22;12804;51.176;4.452;2022-09-16T15:31:01;17.50;99.90
24686;DHT22;12804;51.176;4.452;2022-09-16T15:33:34;16.80;99.90
24686;DHT22;12804;51.176;4.452;2022-09-16T15:36:00;16.10;99.90
24686;DHT22;12804;51.176;4.452;2022-09-16T15:38:27;15.30;99.90
24686;DHT22;12804;51.176;4.452;2022-09-16T15:41:03;14.90;99.90
24686;DHT22;12804;51.176;4.452;2022-09-16T15:43:32;14.60;99.90
24686;DHT22;12804;51.176;4.452;2022-09-16T15:46:03;14.30;99.90
24686;DHT22;12804;51.176;4.452;2022-09-16T15:48:33;14.20;99.90
24686;DHT22;12804;51.176;4.452;2022-09-16T15:51:07;14.10;99.90
24686;DHT22;12804;51.176;4.452;2022-09-16T15:53:35;14.20;99.90
24686;DHT22;12804;51.176;4.452;2022-09-16T15:56:20;14.30;99.90
24686;DHT22;12804;51.176;4.452;2022-09-16T15:58:48;14.20;99.90
24686;DHT22;12804;51.176;4.452;2022-09-16T16:01:19;14.10;99.90
24686;DHT22;12804;51.176;4.452;2022-09-16T16:03:48;14.10;99.90
24686;DHT22;12804;51.176;4.452;2022-09-16T16:06:14;14.10;99.90
24686;DHT22;12804;51.176;4.452;2022-09-16T16:11:07;14.00;99.90
24686;DHT22;12804;51.176;4.452;2022-09-16T16:13:34;13.90;99.90
24686;DHT22;12804;51.176;4.452;2022-09-16T16:15:59;13.80;99.90
24686;DHT22;12804;51.176;4.452;2022-09-16T16:18:28;13.70;99.90
24686;DHT22;12804;51.176;4.452;2022-09-16T16:20:57;13.50;99.90
24686;DHT22;12804;51.176;4.452;2022-09-16T16:23:23;13.50;99.90
24686;DHT22;12804;51.176;4.452;2022-09-16T16:25:48;13.50;99.90
24686;DHT22;12804;51.176;4.452;2022-09-16T16:28:14;13.50;99.90
24686;DHT22;12804;51.176;4.452;2022-09-16T16:30:40;13.50;99.90
24686;DHT22;12804;51.176;4.452;2022-09-16T16:33:06;13.40;99.90
24686;DHT22;12804;51.176;4.452;2022-09-16T16:35:32;13.20;99.90
24686;DHT22;12804;51.176;4.452;2022-09-16T16:37:57;13.00;99.90
24686;DHT22;12804;51.176;4.452;2022-09-16T16:40:23;12.80;99.90
24686;DHT22;12804;51.176;4.452;2022-09-16T16:42:49;12.60;99.90
24686;DHT22;12804;51.176;4.452;2022-09-16T16:45:15;12.50;99.90
24686;DHT22;12804;51.176;4.452;2022-09-16T16:47:41;12.40;99.90
24686;DHT22;12804;51.176;4.452;2022-09-16T16:50:07;12.40;99.90
24686;DHT22;12804;51.176;4.452;2022-09-16T16:52:33;12.30;99.90
24686;DHT22;12804;51.176;4.452;2022-09-16T16:54:58;12.40;99.90
24686;DHT22;12804;51.176;4.452;2022-09-16T16:57:24;12.30;99.90
24686;DHT22;12804;51.176;4.452;2022-09-16T16:59:50;12.30;99.90
24686;DHT22;12804;51.176;4.452;2022-09-16T17:02:16;12.20;99.90
24686;DHT22;12804;51.176;4.452;2022-09-16T17:04:42;12.20;99.90
24686;DHT22;12804;51.176;4.452;2022-09-16T17:07:07;12.20;99.90
24686;DHT22;12804;51.176;4.452;2022-09-16T17:09:33;12.20;99.90
24686;DHT22;12804;51.176;4.452;2022-09-16T17:11:59;12.10;99.90
24686;DHT22;12804;51.176;4.452;2022-09-16T17:14:26;12.10;99.90
24686;DHT22;12804;51.176;4.452;2022-09-16T17:16:52;12.00;99.90
24686;DHT22;12804;51.176;4.452;2022-09-16T17:19:19;12.10;99.90
24686;DHT22;12804;51.176;4.452;2022-09-16T17:21:45;12.20;99.90
24686;DHT22;12804;51.176;4.452;2022-09-16T17:24:11;12.20;99.90
24686;DHT22;12804;51.176;4.452;2022-09-16T17:26:37;12.30;99.90
24686;DHT22;12804;51.176;4.452;2022-09-16T17:29:03;12.30;99.90
24686;DHT22;12804;51.176;4.452;2022-09-16T17:31:30;12.30;99.90
24686;DHT22;12804;51.176;4.452;2022-09-16T17:34:03;12.30;99.90
24686;DHT22;12804;51.176;4.452;2022-09-16T17:36:30;12.30;99.90
24686;DHT22;12804;51.176;4.452;2022-09-16T17:38:57;12.30;99.90
24686;DHT22;12804;51.176;4.452;2022-09-16T17:41:23;12.20;99.90
24686;DHT22;12804;51.176;4.452;2022-09-16T17:43:51;12.20;99.90
24686;DHT22;12804;51.176;4.452;2022-09-16T17:46:17;12.20;99.90
24686;DHT22;12804;51.176;4.452;2022-09-16T17:48:45;12.20;99.90
24686;DHT22;12804;51.176;4.452;2022-09-16T17:51:10;12.20;99.90
24686;DHT22;12804;51.176;4.452;2022-09-16T17:53:36;12.10;99.90
24686;DHT22;12804;51.176;4.452;2022-09-16T17:56:06;12.00;99.90
24686;DHT22;12804;51.176;4.452;2022-09-16T17:58:33;12.10;99.90
24686;DHT22;12804;51.176;4.452;2022-09-16T18:01:03;12.00;99.90
24686;DHT22;12804;51.176;4.452;2022-09-16T18:03:29;12.00;99.90
24686;DHT22;12804;51.176;4.452;2022-09-16T18:06:01;11.90;99.90
24686;DHT22;12804;51.176;4.452;2022-09-16T18:08:26;11.80;99.90
24686;DHT22;12804;51.176;4.452;2022-09-16T18:10:52;11.70;99.90
24686;DHT22;12804;51.176;4.452;2022-09-16T18:13:18;11.60;99.90
24686;DHT22;12804;51.176;4.452;2022-09-16T18:15:44;11.70;99.90
24686;DHT22;12804;51.176;4.452;2022-09-16T18:18:09;11.60;99.90